createdAt,value
2016-10-23T00:00:35.723Z,0
2016-10-23T00:01:35.730Z,0
2016-10-23T00:02:35.790Z,0
2016-10-23T00:03:35.764Z,0
2016-10-23T00:04:35.820Z,0
2016-10-23T00:05:35.798Z,0
2016-10-23T00:06:35.832Z,0
2016-10-23T00:07:35.845Z,0
2016-10-23T00:08:36.181Z,0
2016-10-23T00:09:35.879Z,0
2016-10-23T00:10:35.899Z,0
2016-10-23T00:11:35.915Z,0
2016-10-23T00:12:35.915Z,0
2016-10-23T00:13:35.917Z,0
2016-10-23T00:14:35.949Z,0
2016-10-23T00:15:35.951Z,0
2016-10-23T00:16:35.987Z,0
2016-10-23T00:17:35.981Z,0
2016-10-23T00:18:36.039Z,0
2016-10-23T00:19:36.014Z,0
2016-10-23T00:20:36.028Z,0
2016-10-23T00:21:36.050Z,0
2016-10-23T00:22:36.077Z,0
2016-10-23T00:23:36.088Z,0
2016-10-23T00:24:36.101Z,0
2016-10-23T00:25:36.122Z,0
2016-10-23T00:26:36.151Z,0
2016-10-23T00:27:36.158Z,0
2016-10-23T00:28:36.180Z,0
2016-10-23T00:29:36.197Z,0
2016-10-23T00:30:36.183Z,0
2016-10-23T00:31:36.227Z,0
2016-10-23T00:32:36.225Z,0
2016-10-23T00:33:36.239Z,0
2016-10-23T00:34:36.266Z,0
2016-10-23T00:35:36.269Z,0
2016-10-23T00:36:36.302Z,0
2016-10-23T00:37:36.298Z,0
2016-10-23T00:38:36.334Z,0
2016-10-23T00:39:36.362Z,0
2016-10-23T00:40:36.340Z,0
2016-10-23T00:41:36.387Z,0
2016-10-23T00:42:36.439Z,0
2016-10-23T00:43:36.390Z,0
2016-10-23T00:44:36.414Z,0
2016-10-23T00:45:36.426Z,0
2016-10-23T00:46:36.442Z,0
2016-10-23T00:47:36.485Z,0
2016-10-23T00:48:36.481Z,0
2016-10-23T00:49:36.523Z,0
2016-10-23T00:50:36.521Z,0
2016-10-23T00:51:36.524Z,0
2016-10-23T00:52:36.548Z,0
2016-10-23T00:53:36.555Z,0
2016-10-23T00:54:36.584Z,0
2016-10-23T00:55:36.593Z,0
2016-10-23T00:56:36.594Z,0
2016-10-23T00:57:36.628Z,0
2016-10-23T00:58:36.628Z,0
2016-10-23T00:59:36.626Z,0
2016-10-23T01:00:36.651Z,0
2016-10-23T01:01:36.691Z,0
2016-10-23T01:02:36.700Z,0
2016-10-23T01:03:36.698Z,0
2016-10-23T01:04:36.744Z,0
2016-10-23T01:05:36.757Z,0
2016-10-23T01:06:37.075Z,0
2016-10-23T01:07:36.773Z,0
2016-10-23T01:08:36.829Z,0
2016-10-23T01:09:36.824Z,0
2016-10-23T01:10:36.846Z,0
2016-10-23T01:11:36.832Z,0
2016-10-23T01:12:36.840Z,0
2016-10-23T01:13:36.915Z,0
2016-10-23T01:14:36.892Z,0
2016-10-23T01:15:36.896Z,0
2016-10-23T01:16:36.903Z,0
2016-10-23T01:17:36.967Z,0
2016-10-23T01:18:36.961Z,0
2016-10-23T01:19:36.959Z,0
2016-10-23T01:20:36.987Z,0
2016-10-23T01:21:36.991Z,0
2016-10-23T01:22:36.998Z,0
2016-10-23T01:23:37.008Z,0
2016-10-23T01:24:37.031Z,0
2016-10-23T01:25:37.052Z,0
2016-10-23T01:26:37.070Z,0
2016-10-23T01:27:37.068Z,0
2016-10-23T01:28:37.112Z,0
2016-10-23T01:29:37.121Z,0
2016-10-23T01:30:37.130Z,0
2016-10-23T01:31:37.131Z,0
2016-10-23T01:32:37.161Z,0
2016-10-23T01:33:37.162Z,0
2016-10-23T01:34:37.184Z,0
2016-10-23T01:35:37.196Z,0
2016-10-23T01:36:37.221Z,0
2016-10-23T01:37:37.236Z,0
2016-10-23T01:38:37.587Z,0
2016-10-23T01:39:37.273Z,0
2016-10-23T01:40:37.608Z,0
2016-10-23T01:41:37.293Z,0
2016-10-23T01:42:37.312Z,0
2016-10-23T01:43:37.328Z,0
2016-10-23T01:44:37.345Z,0
2016-10-23T01:45:37.352Z,0
2016-10-23T01:46:37.398Z,0
2016-10-23T01:47:37.384Z,0
2016-10-23T01:48:37.418Z,0
2016-10-23T01:49:37.406Z,0
2016-10-23T01:50:37.422Z,0
2016-10-23T01:51:37.467Z,0
2016-10-23T01:52:37.458Z,0
2016-10-23T01:53:37.471Z,0
2016-10-23T01:54:37.507Z,0
2016-10-23T01:55:37.505Z,0
2016-10-23T01:56:37.522Z,0
2016-10-23T01:57:37.550Z,0
2016-10-23T01:58:37.549Z,0
2016-10-23T01:59:37.558Z,0
2016-10-23T02:00:37.595Z,0
2016-10-23T02:01:37.594Z,0
2016-10-23T02:02:37.620Z,0
2016-10-23T02:03:37.645Z,0
2016-10-23T02:04:37.979Z,0
2016-10-23T02:05:37.655Z,0
2016-10-23T02:06:37.684Z,0
2016-10-23T02:07:37.716Z,0
2016-10-23T02:08:37.694Z,0
2016-10-23T02:09:37.780Z,0
2016-10-23T02:10:37.808Z,0
2016-10-23T02:11:37.751Z,0
2016-10-23T02:12:37.771Z,0
2016-10-23T02:13:37.796Z,0
2016-10-23T02:14:37.800Z,0
2016-10-23T02:15:37.811Z,0
2016-10-23T02:16:37.834Z,0
2016-10-23T02:17:37.855Z,0
2016-10-23T02:18:38.194Z,0
2016-10-23T02:19:37.870Z,0
2016-10-23T02:20:37.907Z,0
2016-10-23T02:21:37.972Z,0
2016-10-23T02:22:37.946Z,0
2016-10-23T02:23:37.935Z,0
2016-10-23T02:24:38.210Z,0
2016-10-23T02:25:37.971Z,0
2016-10-23T02:26:38.002Z,0
2016-10-23T02:27:38.014Z,0
2016-10-23T02:28:38.038Z,0
2016-10-23T02:29:38.041Z,0
2016-10-23T02:30:38.379Z,0
2016-10-23T02:31:38.059Z,0
2016-10-23T02:32:38.096Z,0
2016-10-23T02:33:38.085Z,0
2016-10-23T02:34:38.114Z,0
2016-10-23T02:35:38.135Z,0
2016-10-23T02:36:38.150Z,0
2016-10-23T02:37:38.163Z,0
2016-10-23T02:38:38.194Z,0
2016-10-23T02:39:38.175Z,0
2016-10-23T02:40:38.197Z,0
2016-10-23T02:41:38.220Z,0
2016-10-23T02:42:38.273Z,0
2016-10-23T02:43:38.244Z,0
2016-10-23T02:44:38.260Z,0
2016-10-23T02:45:38.283Z,0
2016-10-23T02:46:38.310Z,0
2016-10-23T02:47:38.318Z,0
2016-10-23T02:48:38.356Z,0
2016-10-23T02:49:38.394Z,0
2016-10-23T02:50:38.352Z,0
2016-10-23T02:51:38.401Z,0
2016-10-23T02:52:38.374Z,0
2016-10-23T02:53:38.441Z,0
2016-10-23T02:54:38.458Z,0
2016-10-23T02:55:38.453Z,0
2016-10-23T02:56:38.470Z,0
2016-10-23T02:57:38.455Z,0
2016-10-23T02:58:38.491Z,0
2016-10-23T02:59:38.510Z,0
2016-10-23T03:00:38.533Z,0
2016-10-23T03:01:38.545Z,0
2016-10-23T03:02:38.561Z,0
2016-10-23T03:03:38.573Z,0
2016-10-23T03:04:38.585Z,0
2016-10-23T03:05:38.579Z,0
2016-10-23T03:06:38.602Z,0
2016-10-23T03:07:38.639Z,0
2016-10-23T03:08:38.646Z,0
2016-10-23T03:09:38.664Z,0
2016-10-23T03:10:38.712Z,0
2016-10-23T03:11:38.670Z,0
2016-10-23T03:12:38.743Z,0
2016-10-23T03:13:38.731Z,0
2016-10-23T03:14:38.744Z,0
2016-10-23T03:15:38.747Z,0
2016-10-23T03:16:38.762Z,0
2016-10-23T03:17:38.768Z,0
2016-10-23T03:18:38.788Z,0
2016-10-23T03:19:38.807Z,0
2016-10-23T03:20:38.867Z,0
2016-10-23T03:21:38.868Z,0
2016-10-23T03:22:39.189Z,0
2016-10-23T03:23:38.860Z,0
2016-10-23T03:24:38.916Z,0
2016-10-23T03:25:38.880Z,0
2016-10-23T03:26:38.928Z,0
2016-10-23T03:27:38.904Z,0
2016-10-23T03:28:38.951Z,0
2016-10-23T03:29:38.964Z,0
2016-10-23T03:30:38.983Z,0
2016-10-23T03:31:38.999Z,0
2016-10-23T03:32:38.998Z,0
2016-10-23T03:33:39.010Z,0
2016-10-23T03:34:39.043Z,0
2016-10-23T03:35:39.083Z,0
2016-10-23T03:36:39.058Z,0
2016-10-23T03:37:39.073Z,0
2016-10-23T03:38:39.118Z,0
2016-10-23T03:39:39.114Z,0
2016-10-23T03:40:39.153Z,0
2016-10-23T03:41:39.144Z,0
2016-10-23T03:42:39.168Z,0
2016-10-23T03:43:39.171Z,0
2016-10-23T03:44:39.231Z,0
2016-10-23T03:45:39.212Z,0
2016-10-23T03:46:39.220Z,0
2016-10-23T03:47:39.215Z,0
2016-10-23T03:48:39.247Z,0
2016-10-23T03:49:39.244Z,0
2016-10-23T03:50:39.266Z,0
2016-10-23T03:51:39.284Z,0
2016-10-23T03:52:39.339Z,0
2016-10-23T03:53:39.295Z,0
2016-10-23T03:54:39.328Z,0
2016-10-23T03:55:39.355Z,0
2016-10-23T03:56:39.375Z,0
2016-10-23T03:57:39.398Z,0
2016-10-23T03:58:39.384Z,0
2016-10-23T03:59:39.442Z,0
2016-10-23T04:01:39.623Z,0
2016-10-23T04:02:39.437Z,0
2016-10-23T04:03:39.445Z,0
2016-10-23T04:04:39.458Z,0
2016-10-23T04:05:39.483Z,0
2016-10-23T04:06:39.480Z,0
2016-10-23T04:07:39.509Z,0
2016-10-23T04:08:39.513Z,0
2016-10-23T04:09:39.518Z,0
2016-10-23T04:10:39.553Z,0
2016-10-23T04:11:39.595Z,0
2016-10-23T04:12:39.583Z,0
2016-10-23T04:13:39.587Z,0
2016-10-23T04:14:39.592Z,0
2016-10-23T04:15:39.637Z,0
2016-10-23T04:16:39.634Z,0
2016-10-23T04:17:39.665Z,0
2016-10-23T04:18:39.656Z,0
2016-10-23T04:19:39.669Z,0
2016-10-23T04:20:39.690Z,0
2016-10-23T04:21:39.718Z,0
2016-10-23T04:22:39.709Z,0
2016-10-23T04:23:39.784Z,0
2016-10-23T04:24:39.774Z,0
2016-10-23T04:25:39.765Z,0
2016-10-23T04:26:39.790Z,0
2016-10-23T04:27:39.806Z,0
2016-10-23T04:28:39.834Z,0
2016-10-23T04:29:39.831Z,0
2016-10-23T04:30:39.878Z,0
2016-10-23T04:31:39.857Z,0
2016-10-23T04:32:39.884Z,0
2016-10-23T04:33:39.902Z,0
2016-10-23T04:34:39.890Z,0
2016-10-23T04:35:39.921Z,0
2016-10-23T04:36:39.944Z,0
2016-10-23T04:37:39.951Z,0
2016-10-23T04:38:40.000Z,0
2016-10-23T04:39:39.986Z,0
2016-10-23T04:40:39.998Z,0
2016-10-23T04:41:40.012Z,0
2016-10-23T04:42:40.013Z,0
2016-10-23T04:43:40.027Z,0
2016-10-23T04:44:40.060Z,0
2016-10-23T04:45:40.080Z,0
2016-10-23T04:46:40.103Z,0
2016-10-23T04:47:40.128Z,0
2016-10-23T04:48:40.138Z,0
2016-10-23T04:49:40.119Z,0
2016-10-23T04:50:40.149Z,0
2016-10-23T04:51:40.178Z,0
2016-10-23T04:52:40.170Z,0
2016-10-23T04:53:40.188Z,0
2016-10-23T04:54:40.210Z,0
2016-10-23T04:55:40.214Z,0
2016-10-23T04:56:40.235Z,0
2016-10-23T04:57:40.233Z,0
2016-10-23T04:58:40.281Z,0
2016-10-23T04:59:40.315Z,0
2016-10-23T05:00:40.294Z,0
2016-10-23T05:01:40.300Z,0
2016-10-23T05:02:40.334Z,0
2016-10-23T05:03:40.365Z,0
2016-10-23T05:04:40.345Z,0
2016-10-23T05:05:40.350Z,0
2016-10-23T05:06:40.395Z,0
2016-10-23T05:07:40.402Z,0
2016-10-23T05:08:40.406Z,0
2016-10-23T05:09:40.441Z,0
2016-10-23T05:10:40.455Z,0
2016-10-23T05:11:40.455Z,0
2016-10-23T05:12:40.447Z,0
2016-10-23T05:13:40.503Z,0
2016-10-23T05:14:40.515Z,0
2016-10-23T05:15:40.510Z,0
2016-10-23T05:16:40.846Z,0
2016-10-23T05:17:40.551Z,0
2016-10-23T05:18:40.589Z,0
2016-10-23T05:19:40.588Z,0
2016-10-23T05:20:40.586Z,0
2016-10-23T05:21:40.611Z,0
2016-10-23T05:22:40.657Z,0
2016-10-23T05:23:40.616Z,0
2016-10-23T05:24:40.663Z,0
2016-10-23T05:25:40.662Z,0
2016-10-23T05:26:40.688Z,0
2016-10-23T05:27:40.681Z,0
2016-10-23T05:28:40.717Z,0
2016-10-23T05:29:40.732Z,0
2016-10-23T05:30:40.742Z,0
2016-10-23T05:31:40.750Z,0
2016-10-23T05:32:40.775Z,0
2016-10-23T05:33:40.811Z,0
2016-10-23T05:34:40.788Z,0
2016-10-23T05:35:40.808Z,0
2016-10-23T05:36:40.841Z,0
2016-10-23T05:37:40.827Z,0
2016-10-23T05:38:40.848Z,0
2016-10-23T05:39:40.858Z,0
2016-10-23T05:40:40.874Z,0
2016-10-23T05:41:40.904Z,0
2016-10-23T05:42:40.916Z,0
2016-10-23T05:43:40.912Z,0
2016-10-23T05:44:40.948Z,0
2016-10-23T05:45:40.955Z,0
2016-10-23T05:46:40.976Z,0
2016-10-23T05:47:40.969Z,0
2016-10-23T05:48:41.001Z,0
2016-10-23T05:49:40.995Z,0
2016-10-23T05:50:41.021Z,0
2016-10-23T05:51:41.071Z,0
2016-10-23T05:52:41.397Z,0
2016-10-23T05:53:41.072Z,0
2016-10-23T05:54:41.085Z,0
2016-10-23T05:55:41.092Z,0
2016-10-23T05:56:41.118Z,0
2016-10-23T05:57:41.138Z,0
2016-10-23T05:58:41.132Z,0
2016-10-23T05:59:41.160Z,0
2016-10-23T06:00:41.178Z,5
2016-10-23T06:01:41.191Z,5
2016-10-23T06:02:41.205Z,5
2016-10-23T06:03:41.234Z,5
2016-10-23T06:04:41.232Z,5
2016-10-23T06:05:41.250Z,5
2016-10-23T06:06:41.260Z,5
2016-10-23T06:07:41.270Z,5
2016-10-23T06:08:41.319Z,10
2016-10-23T06:09:41.318Z,10
2016-10-23T06:10:41.324Z,10
2016-10-23T06:11:41.352Z,10
2016-10-23T06:12:41.688Z,10
2016-10-23T06:13:41.363Z,10
2016-10-23T06:14:41.694Z,15
2016-10-23T06:15:41.405Z,15
2016-10-23T06:16:41.415Z,15
2016-10-23T06:17:41.416Z,15
2016-10-23T06:18:41.436Z,15
2016-10-23T06:19:41.454Z,15
2016-10-23T06:20:41.475Z,20
2016-10-23T06:21:41.460Z,20
2016-10-23T06:22:41.498Z,20
2016-10-23T06:23:41.511Z,20
2016-10-23T06:24:41.527Z,25
2016-10-23T06:25:41.556Z,25
2016-10-23T06:26:41.554Z,25
2016-10-23T06:27:41.575Z,25
2016-10-23T06:28:41.589Z,25
2016-10-23T06:29:41.600Z,30
2016-10-23T06:30:41.651Z,30
2016-10-23T06:31:41.645Z,30
2016-10-23T06:32:41.640Z,35
2016-10-23T06:33:41.651Z,35
2016-10-23T06:34:41.685Z,35
2016-10-23T06:35:41.691Z,35
2016-10-23T06:36:41.712Z,40
2016-10-23T06:37:41.716Z,40
2016-10-23T06:38:41.731Z,40
2016-10-23T06:39:41.739Z,40
2016-10-23T06:40:41.759Z,45
2016-10-23T06:41:41.781Z,45
2016-10-23T06:42:41.794Z,45
2016-10-23T06:43:41.794Z,45
2016-10-23T06:44:41.831Z,50
2016-10-23T06:45:41.847Z,50
2016-10-23T06:46:41.867Z,50
2016-10-23T06:47:41.868Z,55
2016-10-23T06:48:41.879Z,55
2016-10-23T06:49:41.901Z,55
2016-10-23T06:50:41.918Z,55
2016-10-23T06:51:41.922Z,60
2016-10-23T06:52:41.975Z,60
2016-10-23T06:53:41.951Z,60
2016-10-23T06:54:42.007Z,60
2016-10-23T06:55:41.964Z,60
2016-10-23T06:56:41.990Z,65
2016-10-23T06:57:42.008Z,65
2016-10-23T06:58:42.011Z,65
2016-10-23T06:59:42.044Z,65
2016-10-23T07:00:42.051Z,70
2016-10-23T07:01:42.044Z,70
2016-10-23T07:02:42.091Z,70
2016-10-23T07:03:42.090Z,75
2016-10-23T07:04:42.095Z,75
2016-10-23T07:05:42.126Z,75
2016-10-23T07:06:42.138Z,75
2016-10-23T07:07:42.161Z,80
2016-10-23T07:08:42.169Z,80
2016-10-23T07:09:42.196Z,80
2016-10-23T07:10:42.206Z,80
2016-10-23T07:11:42.241Z,85
2016-10-23T07:12:42.211Z,85
2016-10-23T07:13:42.234Z,90
2016-10-23T07:14:42.257Z,90
2016-10-23T07:15:42.263Z,90
2016-10-23T07:16:42.297Z,90
2016-10-23T07:17:42.292Z,90
2016-10-23T07:18:42.323Z,95
2016-10-23T07:19:42.325Z,95
2016-10-23T07:20:42.378Z,95
2016-10-23T07:21:42.357Z,95
2016-10-23T07:22:42.367Z,100
2016-10-23T07:23:42.391Z,100
2016-10-23T07:24:42.416Z,100
2016-10-23T07:25:42.420Z,100
2016-10-23T07:26:42.444Z,105
2016-10-23T07:27:42.439Z,105
2016-10-23T07:28:42.473Z,105
2016-10-23T07:29:42.481Z,105
2016-10-23T07:30:42.494Z,110
2016-10-23T07:31:42.491Z,110
2016-10-23T07:32:42.530Z,110
2016-10-23T07:33:42.538Z,110
2016-10-23T07:34:42.572Z,110
2016-10-23T07:35:42.549Z,115
2016-10-23T07:36:42.595Z,115
2016-10-23T07:37:42.595Z,115
2016-10-23T07:38:42.621Z,115
2016-10-23T07:39:42.638Z,120
2016-10-23T07:40:42.640Z,120
2016-10-23T07:41:42.664Z,120
2016-10-23T07:42:42.667Z,120
2016-10-23T07:43:42.717Z,120
2016-10-23T07:44:42.706Z,120
2016-10-23T07:45:42.699Z,125
2016-10-23T07:46:42.745Z,125
2016-10-23T07:47:42.794Z,125
2016-10-23T07:48:42.769Z,125
2016-10-23T07:49:42.755Z,125
2016-10-23T07:50:42.836Z,125
2016-10-23T07:51:42.803Z,130
2016-10-23T07:52:42.842Z,130
2016-10-23T07:53:42.826Z,130
2016-10-23T07:54:42.857Z,130
2016-10-23T07:55:42.849Z,135
2016-10-23T07:56:42.880Z,135
2016-10-23T07:57:42.859Z,135
2016-10-23T07:58:42.928Z,135
2016-10-23T07:59:42.923Z,135
2016-10-23T08:00:42.933Z,140
2016-10-23T08:01:42.993Z,140
2016-10-23T08:02:42.972Z,140
2016-10-23T08:03:42.984Z,140
2016-10-23T08:04:43.006Z,140
2016-10-23T08:05:43.047Z,140
2016-10-23T08:06:43.043Z,145
2016-10-23T08:07:43.048Z,145
2016-10-23T08:08:43.052Z,145
2016-10-23T08:09:43.082Z,145
2016-10-23T08:10:43.101Z,145
2016-10-23T08:11:43.135Z,145
2016-10-23T08:12:43.131Z,145
2016-10-23T08:13:43.142Z,145
2016-10-23T08:14:43.171Z,150
2016-10-23T08:15:43.177Z,145
2016-10-23T08:16:43.193Z,150
2016-10-23T08:17:43.192Z,150
2016-10-23T08:18:43.264Z,150
2016-10-23T08:19:43.214Z,150
2016-10-23T08:20:43.264Z,150
2016-10-23T08:21:43.314Z,155
2016-10-23T08:22:43.293Z,155
2016-10-23T08:23:43.300Z,155
2016-10-23T08:24:43.322Z,155
2016-10-23T08:25:43.336Z,155
2016-10-23T08:26:43.668Z,155
2016-10-23T08:27:43.350Z,155
2016-10-23T08:28:43.429Z,155
2016-10-23T08:29:43.383Z,160
2016-10-23T08:30:43.428Z,160
2016-10-23T08:31:43.425Z,155
2016-10-23T08:32:43.447Z,160
2016-10-23T08:33:43.464Z,160
2016-10-23T08:34:43.473Z,160
2016-10-23T08:35:43.485Z,160
2016-10-23T08:36:43.519Z,160
2016-10-23T08:37:43.520Z,160
2016-10-23T08:38:43.542Z,160
2016-10-23T08:39:43.550Z,160
2016-10-23T08:40:43.573Z,160
2016-10-23T08:41:43.571Z,160
2016-10-23T08:42:43.616Z,165
2016-10-23T08:43:43.615Z,165
2016-10-23T08:44:43.953Z,165
2016-10-23T08:45:43.646Z,165
2016-10-23T08:46:43.661Z,155
2016-10-23T08:47:43.687Z,160
2016-10-23T08:48:43.695Z,165
2016-10-23T08:49:43.709Z,150
2016-10-23T08:50:43.735Z,160
2016-10-23T08:51:43.737Z,160
2016-10-23T08:52:43.744Z,160
2016-10-23T08:53:43.781Z,160
2016-10-23T08:54:43.789Z,160
2016-10-23T08:55:43.796Z,160
2016-10-23T08:56:43.820Z,170
2016-10-23T08:57:43.887Z,145
2016-10-23T08:58:43.832Z,140
2016-10-23T08:59:43.868Z,150
2016-10-23T09:00:43.879Z,145
2016-10-23T09:01:43.896Z,145
2016-10-23T09:02:43.925Z,155
2016-10-23T09:03:43.936Z,180
2016-10-23T09:04:43.984Z,175
2016-10-23T09:05:43.950Z,175
2016-10-23T09:06:44.038Z,170
2016-10-23T09:07:44.011Z,175
2016-10-23T09:08:44.024Z,180
2016-10-23T09:09:44.017Z,180
2016-10-23T09:10:44.055Z,180
2016-10-23T09:11:44.070Z,180
2016-10-23T09:12:44.088Z,185
2016-10-23T09:13:44.094Z,180
2016-10-23T09:14:44.117Z,175
2016-10-23T09:15:44.138Z,170
2016-10-23T09:16:44.162Z,175
2016-10-23T09:17:44.161Z,180
2016-10-23T09:18:44.200Z,180
2016-10-23T09:19:44.192Z,180
2016-10-23T09:20:44.207Z,185
2016-10-23T09:21:44.228Z,185
2016-10-23T09:22:44.256Z,180
2016-10-23T09:23:44.296Z,180
2016-10-23T09:24:44.293Z,180
2016-10-23T09:25:44.292Z,190
2016-10-23T09:26:44.647Z,195
2016-10-23T09:27:44.344Z,190
2016-10-23T09:28:44.337Z,185
2016-10-23T09:29:44.382Z,165
2016-10-23T09:30:44.380Z,155
2016-10-23T09:31:44.379Z,150
2016-10-23T09:32:44.416Z,155
2016-10-23T09:33:44.468Z,165
2016-10-23T09:34:44.770Z,175
2016-10-23T09:35:44.464Z,190
2016-10-23T09:36:44.471Z,190
2016-10-23T09:37:44.831Z,190
2016-10-23T09:38:44.535Z,190
2016-10-23T09:39:44.525Z,185
2016-10-23T09:40:44.553Z,185
2016-10-23T09:41:44.581Z,190
2016-10-23T09:42:44.577Z,190
2016-10-23T09:43:44.608Z,190
2016-10-23T09:44:44.619Z,190
2016-10-23T09:45:44.618Z,190
2016-10-23T09:46:44.668Z,190
2016-10-23T09:47:44.676Z,190
2016-10-23T09:48:44.692Z,190
2016-10-23T09:49:44.690Z,185
2016-10-23T09:50:44.706Z,190
2016-10-23T09:51:44.722Z,185
2016-10-23T09:52:44.737Z,185
2016-10-23T09:53:44.798Z,185
2016-10-23T09:54:44.777Z,185
2016-10-23T09:55:44.811Z,185
2016-10-23T09:56:44.827Z,185
2016-10-23T09:57:44.821Z,185
2016-10-23T09:58:44.856Z,185
2016-10-23T09:59:44.849Z,185
2016-10-23T10:00:44.892Z,190
2016-10-23T10:01:44.918Z,190
2016-10-23T10:02:44.915Z,195
2016-10-23T10:03:44.922Z,190
2016-10-23T10:04:44.944Z,190
2016-10-23T10:05:44.965Z,185
2016-10-23T10:06:44.995Z,180
2016-10-23T10:07:44.995Z,180
2016-10-23T10:08:45.013Z,185
2016-10-23T10:09:45.013Z,185
2016-10-23T10:10:45.060Z,180
2016-10-23T10:11:45.060Z,180
2016-10-23T10:12:45.081Z,180
2016-10-23T10:13:45.134Z,180
2016-10-23T10:14:45.123Z,185
2016-10-23T10:15:45.151Z,185
2016-10-23T10:16:45.159Z,185
2016-10-23T10:17:45.187Z,185
2016-10-23T10:18:45.185Z,185
2016-10-23T10:19:45.201Z,185
2016-10-23T10:20:45.258Z,180
2016-10-23T10:21:45.222Z,180
2016-10-23T10:22:45.275Z,170
2016-10-23T10:23:45.277Z,165
2016-10-23T10:24:45.300Z,160
2016-10-23T10:25:45.302Z,145
2016-10-23T10:26:45.339Z,160
2016-10-23T10:27:45.345Z,145
2016-10-23T10:28:45.378Z,175
2016-10-23T10:29:45.412Z,165
2016-10-23T10:30:45.396Z,170
2016-10-23T10:31:45.401Z,140
2016-10-23T10:32:45.414Z,140
2016-10-23T10:33:45.440Z,155
2016-10-23T10:34:45.439Z,150
2016-10-23T10:35:45.463Z,165
2016-10-23T10:36:45.502Z,180
2016-10-23T10:37:45.548Z,175
2016-10-23T10:38:45.515Z,180
2016-10-23T10:39:45.537Z,165
2016-10-23T10:40:45.552Z,180
2016-10-23T10:41:45.576Z,175
2016-10-23T10:42:45.589Z,180
2016-10-23T10:43:45.584Z,180
2016-10-23T10:44:45.610Z,180
2016-10-23T10:45:45.650Z,180
2016-10-23T10:46:45.645Z,175
2016-10-23T10:47:45.676Z,175
2016-10-23T10:48:45.680Z,175
2016-10-23T10:49:45.691Z,175
2016-10-23T10:50:45.719Z,175
2016-10-23T10:51:45.765Z,175
2016-10-23T10:52:45.773Z,175
2016-10-23T10:53:45.773Z,175
2016-10-23T10:54:45.794Z,175
2016-10-23T10:55:45.819Z,175
2016-10-23T10:56:45.826Z,175
2016-10-23T10:57:45.830Z,175
2016-10-23T10:58:45.853Z,175
2016-10-23T10:59:45.859Z,175
2016-10-23T11:00:45.898Z,175
2016-10-23T11:01:45.897Z,175
2016-10-23T11:02:45.927Z,175
2016-10-23T11:03:45.949Z,175
2016-10-23T11:04:45.961Z,175
2016-10-23T11:05:45.972Z,175
2016-10-23T11:06:45.992Z,180
2016-10-23T11:07:46.002Z,180
2016-10-23T11:08:46.030Z,175
2016-10-23T11:09:46.051Z,180
2016-10-23T11:10:46.053Z,180
2016-10-23T11:11:46.053Z,180
2016-10-23T11:12:46.106Z,180
2016-10-23T11:13:46.086Z,180
2016-10-23T11:14:46.126Z,180
2016-10-23T11:15:46.136Z,180
2016-10-23T11:16:46.196Z,180
2016-10-23T11:17:46.177Z,185
2016-10-23T11:18:46.188Z,180
2016-10-23T11:19:46.197Z,180
2016-10-23T11:20:46.217Z,180
2016-10-23T11:21:46.241Z,180
2016-10-23T11:22:46.249Z,175
2016-10-23T11:23:46.281Z,180
2016-10-23T11:24:46.294Z,180
2016-10-23T11:25:46.309Z,180
2016-10-23T11:26:46.365Z,180
2016-10-23T11:27:46.364Z,180
2016-10-23T11:28:46.373Z,180
2016-10-23T11:29:46.382Z,180
2016-10-23T11:30:46.390Z,180
2016-10-23T11:31:46.432Z,180
2016-10-23T11:32:46.435Z,180
2016-10-23T11:33:46.426Z,180
2016-10-23T11:34:46.460Z,180
2016-10-23T11:35:46.464Z,180
2016-10-23T11:36:46.482Z,180
2016-10-23T11:37:46.533Z,180
2016-10-23T11:38:46.517Z,175
2016-10-23T11:39:46.527Z,175
2016-10-23T11:40:46.601Z,175
2016-10-23T11:41:46.549Z,175
2016-10-23T11:42:46.586Z,175
2016-10-23T11:43:46.595Z,175
2016-10-23T11:44:46.632Z,175
2016-10-23T11:45:46.621Z,175
2016-10-23T11:46:46.663Z,175
2016-10-23T11:47:46.667Z,175
2016-10-23T11:48:46.664Z,175
2016-10-23T11:49:46.715Z,175
2016-10-23T11:50:46.734Z,175
2016-10-23T11:51:46.751Z,175
2016-10-23T11:52:46.792Z,175
2016-10-23T11:53:46.778Z,175
2016-10-23T11:54:46.780Z,175
2016-10-23T11:55:46.788Z,175
2016-10-23T11:56:46.855Z,175
2016-10-23T11:57:46.858Z,175
2016-10-23T11:58:46.842Z,175
2016-10-23T11:59:46.876Z,175
2016-10-23T12:00:46.929Z,175
2016-10-23T12:01:46.917Z,175
2016-10-23T12:02:46.935Z,175
2016-10-23T12:03:46.931Z,175
2016-10-23T12:04:46.968Z,175
2016-10-23T12:05:46.969Z,175
2016-10-23T12:06:46.985Z,175
2016-10-23T12:07:47.008Z,175
2016-10-23T12:08:47.039Z,175
2016-10-23T12:09:47.031Z,175
2016-10-23T12:10:47.066Z,175
2016-10-23T12:11:47.086Z,175
2016-10-23T12:12:47.108Z,175
2016-10-23T12:13:47.129Z,170
2016-10-23T12:14:47.143Z,175
2016-10-23T12:15:47.133Z,170
2016-10-23T12:16:47.194Z,170
2016-10-23T12:17:47.183Z,170
2016-10-23T12:18:47.206Z,175
2016-10-23T12:19:47.211Z,175
2016-10-23T12:20:47.229Z,175
2016-10-23T12:21:47.236Z,175
2016-10-23T12:22:47.298Z,170
2016-10-23T12:23:47.292Z,170
2016-10-23T12:24:47.282Z,170
2016-10-23T12:25:47.333Z,170
2016-10-23T12:26:47.338Z,170
2016-10-23T12:27:47.347Z,170
2016-10-23T12:28:47.370Z,170
2016-10-23T12:29:47.410Z,170
2016-10-23T12:30:47.408Z,170
2016-10-23T12:31:47.432Z,170
2016-10-23T12:32:47.760Z,170
2016-10-23T12:33:47.458Z,165
2016-10-23T12:34:47.470Z,165
2016-10-23T12:35:47.498Z,170
2016-10-23T12:36:47.518Z,170
2016-10-23T12:37:47.542Z,170
2016-10-23T12:38:47.550Z,170
2016-10-23T12:39:47.540Z,170
2016-10-23T12:40:47.908Z,165
2016-10-23T12:41:47.600Z,165
2016-10-23T12:42:47.630Z,165
2016-10-23T12:43:47.634Z,160
2016-10-23T12:44:47.680Z,160
2016-10-23T12:45:47.676Z,155
2016-10-23T12:46:47.683Z,155
2016-10-23T12:47:47.698Z,160
2016-10-23T12:48:47.719Z,160
2016-10-23T12:49:47.744Z,160
2016-10-23T12:50:47.746Z,160
2016-10-23T12:51:47.818Z,160
2016-10-23T12:52:47.810Z,160
2016-10-23T12:53:47.828Z,155
2016-10-23T12:54:47.826Z,155
2016-10-23T12:55:47.808Z,155
2016-10-23T12:56:47.854Z,155
2016-10-23T12:57:47.868Z,155
2016-10-23T12:58:47.902Z,160
2016-10-23T12:59:47.909Z,160
2016-10-23T13:00:47.910Z,155
2016-10-23T13:01:47.936Z,150
2016-10-23T13:02:47.969Z,150
2016-10-23T13:03:47.976Z,150
2016-10-23T13:04:47.977Z,150
2016-10-23T13:05:48.020Z,155
2016-10-23T13:06:48.053Z,150
2016-10-23T13:07:48.072Z,150
2016-10-23T13:08:48.404Z,150
2016-10-23T13:09:48.430Z,150
2016-10-23T13:10:48.097Z,150
2016-10-23T13:11:48.105Z,150
2016-10-23T13:12:48.139Z,145
2016-10-23T13:13:48.143Z,145
2016-10-23T13:14:48.189Z,145
2016-10-23T13:15:48.176Z,145
2016-10-23T13:16:48.211Z,140
2016-10-23T13:17:48.205Z,140
2016-10-23T13:18:48.256Z,140
2016-10-23T13:19:48.245Z,140
2016-10-23T13:20:48.286Z,140
2016-10-23T13:21:48.279Z,135
2016-10-23T13:22:48.337Z,135
2016-10-23T13:23:48.330Z,135
2016-10-23T13:24:48.872Z,135
2016-10-23T13:25:48.354Z,135
2016-10-23T13:26:48.400Z,135
2016-10-23T13:27:54.370Z,135
2016-10-23T13:28:49.543Z,135
2016-10-23T13:29:49.300Z,135
2016-10-23T13:30:48.462Z,130
2016-10-23T13:31:48.496Z,130
2016-10-23T13:32:48.483Z,130
2016-10-23T13:33:48.510Z,130
2016-10-23T13:34:48.523Z,130
2016-10-23T13:35:48.541Z,130
2016-10-23T13:36:48.547Z,130
2016-10-23T13:37:48.577Z,130
2016-10-23T13:38:48.603Z,125
2016-10-23T13:39:48.595Z,130
2016-10-23T13:40:48.637Z,125
2016-10-23T13:41:48.646Z,125
2016-10-23T13:42:48.650Z,125
2016-10-23T13:43:48.662Z,125
2016-10-23T13:44:48.680Z,125
2016-10-23T13:45:48.713Z,120
2016-10-23T13:46:48.732Z,120
2016-10-23T13:47:48.745Z,120
2016-10-23T13:48:48.781Z,120
2016-10-23T13:49:48.821Z,120
2016-10-23T13:50:48.783Z,120
2016-10-23T13:51:48.820Z,115
2016-10-23T13:52:48.831Z,115
2016-10-23T13:53:48.905Z,115
2016-10-23T13:54:48.909Z,115
2016-10-23T13:55:48.906Z,115
2016-10-23T13:56:48.922Z,115
2016-10-23T13:57:48.919Z,115
2016-10-23T13:58:48.941Z,115
2016-10-23T13:59:49.004Z,110
2016-10-23T14:00:48.984Z,110
2016-10-23T14:01:49.026Z,110
2016-10-23T14:02:49.034Z,110
2016-10-23T14:03:49.098Z,110
2016-10-23T14:04:49.050Z,110
2016-10-23T14:05:49.053Z,105
2016-10-23T14:06:49.063Z,105
2016-10-23T14:07:49.108Z,105
2016-10-23T14:08:49.121Z,105
2016-10-23T14:09:49.137Z,105
2016-10-23T14:10:49.139Z,105
2016-10-23T14:11:49.183Z,105
2016-10-23T14:12:49.203Z,105
2016-10-23T14:13:49.198Z,105
2016-10-23T14:14:49.252Z,100